sensor_id;sensor_type;location;lat;lon;timestamp;P1;durP1;ratioP1;P2;durP2;ratioP2
47413;SDS011;33163;0.000;0.000;2022-09-03T00:00:44;2.08;;;1.00;;
47413;SDS011;33163;0.000;0.000;2022-09-03T00:03:19;1.95;;;0.82;;
47413;SDS011;33163;0.000;0.000;2022-09-03T00:05:50;3.20;;;1.30;;
47413;SDS011;33163;0.000;0.000;2022-09-03T00:08:29;3.97;;;1.20;;
47413;SDS011;33163;0.000;0.000;2022-09-03T00:11:03;1.75;;;1.13;;
47413;SDS011;33163;0.000;0.000;2022-09-03T00:13:37;1.77;;;1.30;;
47413;SDS011;33163;0.000;0.000;2022-09-03T00:16:08;3.45;;;1.40;;
47413;SDS011;33163;0.000;0.000;2022-09-03T00:18:42;1.35;;;1.02;;
47413;SDS011;33163;0.000;0.000;2022-09-03T00:21:13;2.47;;;1.10;;
47413;SDS011;33163;0.000;0.000;2022-09-03T00:23:43;2.90;;;1.60;;
47413;SDS011;33163;0.000;0.000;2022-09-03T00:26:17;1.67;;;1.15;;
47413;SDS011;33163;0.000;0.000;2022-09-03T00:28:50;2.38;;;1.40;;
47413;SDS011;33163;0.000;0.000;2022-09-03T00:33:57;2.25;;;1.15;;
47413;SDS011;33163;0.000;0.000;2022-09-03T00:36:29;1.73;;;1.08;;
47413;SDS011;33163;0.000;0.000;2022-09-03T00:39:00;2.20;;;1.35;;
47413;SDS011;33163;0.000;0.000;2022-09-03T00:41:29;3.45;;;1.30;;
47413;SDS011;33163;0.000;0.000;2022-09-03T00:44:06;3.70;;;1.63;;
47413;SDS011;33163;0.000;0.000;2022-09-03T00:46:52;1.52;;;1.20;;
47413;SDS011;33163;0.000;0.000;2022-09-03T00:49:31;3.15;;;1.85;;
47413;SDS011;33163;0.000;0.000;2022-09-03T00:52:08;2.22;;;1.00;;
47413;SDS011;33163;0.000;0.000;2022-09-03T00:54:45;1.65;;;1.23;;
47413;SDS011;33163;0.000;0.000;2022-09-03T00:57:23;2.22;;;1.40;;
47413;SDS011;33163;0.000;0.000;2022-09-03T01:00:00;1.42;;;1.15;;
47413;SDS011;33163;0.000;0.000;2022-09-03T01:02:33;2.22;;;1.42;;
47413;SDS011;33163;0.000;0.000;2022-09-03T01:05:14;3.78;;;1.08;;
47413;SDS011;33163;0.000;0.000;2022-09-03T01:07:53;2.00;;;1.13;;
47413;SDS011;33163;0.000;0.000;2022-09-03T01:10:33;1.20;;;1.10;;
47413;SDS011;33163;0.000;0.000;2022-09-03T01:13:09;1.55;;;1.40;;
47413;SDS011;33163;0.000;0.000;2022-09-03T01:15:43;2.20;;;1.27;;
47413;SDS011;33163;0.000;0.000;2022-09-03T01:18:17;4.13;;;1.10;;
47413;SDS011;33163;0.000;0.000;2022-09-03T01:20:52;1.88;;;1.08;;
47413;SDS011;33163;0.000;0.000;2022-09-03T01:23:36;1.38;;;1.10;;
47413;SDS011;33163;0.000;0.000;2022-09-03T01:26:36;1.77;;;1.30;;
47413;SDS011;33163;0.000;0.000;2022-09-03T01:29:17;1.40;;;1.00;;
47413;SDS011;33163;0.000;0.000;2022-09-03T01:31:53;4.00;;;1.30;;
47413;SDS011;33163;0.000;0.000;2022-09-03T01:34:28;3.83;;;1.65;;
47413;SDS011;33163;0.000;0.000;2022-09-03T01:37:04;3.13;;;1.58;;
47413;SDS011;33163;0.000;0.000;2022-09-03T01:39:40;1.90;;;1.40;;
47413;SDS011;33163;0.000;0.000;2022-09-03T01:42:20;1.35;;;1.20;;
47413;SDS011;33163;0.000;0.000;2022-09-03T01:48:00;1.45;;;1.30;;
47413;SDS011;33163;0.000;0.000;2022-09-03T01:50:43;3.25;;;1.27;;
47413;SDS011;33163;0.000;0.000;2022-09-03T01:53:17;4.05;;;1.25;;
47413;SDS011;33163;0.000;0.000;2022-09-03T01:56:00;2.10;;;1.20;;
47413;SDS011;33163;0.000;0.000;2022-09-03T01:58:38;2.38;;;1.23;;
47413;SDS011;33163;0.000;0.000;2022-09-03T02:01:11;2.55;;;1.38;;
47413;SDS011;33163;0.000;0.000;2022-09-03T02:03:42;3.97;;;1.38;;
47413;SDS011;33163;0.000;0.000;2022-09-03T02:06:11;2.05;;;1.30;;
47413;SDS011;33163;0.000;0.000;2022-09-03T02:08:38;3.47;;;1.08;;
47413;SDS011;33163;0.000;0.000;2022-09-03T02:11:06;1.55;;;1.10;;
47413;SDS011;33163;0.000;0.000;2022-09-03T02:13:35;1.08;;;0.95;;
47413;SDS011;33163;0.000;0.000;2022-09-03T02:16:06;2.17;;;1.30;;
47413;SDS011;33163;0.000;0.000;2022-09-03T02:21:07;2.95;;;1.33;;
47413;SDS011;33163;0.000;0.000;2022-09-03T02:23:37;1.50;;;1.20;;
47413;SDS011;33163;0.000;0.000;2022-09-03T02:26:04;2.33;;;1.05;;
47413;SDS011;33163;0.000;0.000;2022-09-03T02:28:33;1.67;;;1.30;;
47413;SDS011;33163;0.000;0.000;2022-09-03T02:31:00;1.92;;;1.13;;
47413;SDS011;33163;0.000;0.000;2022-09-03T02:33:35;1.58;;;1.33;;
47413;SDS011;33163;0.000;0.000;2022-09-03T02:36:03;3.33;;;1.42;;
47413;SDS011;33163;0.000;0.000;2022-09-03T02:38:32;1.27;;;1.17;;
47413;SDS011;33163;0.000;0.000;2022-09-03T02:40:58;2.88;;;1.27;;
47413;SDS011;33163;0.000;0.000;2022-09-03T02:43:26;4.18;;;1.30;;
47413;SDS011;33163;0.000;0.000;2022-09-03T02:46:00;2.83;;;1.50;;
47413;SDS011;33163;0.000;0.000;2022-09-03T02:48:29;2.28;;;1.17;;
47413;SDS011;33163;0.000;0.000;2022-09-03T02:50:57;1.52;;;1.08;;
47413;SDS011;33163;0.000;0.000;2022-09-03T02:53:23;1.65;;;1.40;;
47413;SDS011;33163;0.000;0.000;2022-09-03T02:55:52;2.33;;;1.45;;
47413;SDS011;33163;0.000;0.000;2022-09-03T02:58:22;2.22;;;1.30;;
47413;SDS011;33163;0.000;0.000;2022-09-03T03:00:49;1.95;;;1.35;;
47413;SDS011;33163;0.000;0.000;2022-09-03T03:03:16;2.38;;;1.30;;
47413;SDS011;33163;0.000;0.000;2022-09-03T03:05:45;5.47;;;1.60;;
47413;SDS011;33163;0.000;0.000;2022-09-03T03:08:14;3.10;;;1.58;;
47413;SDS011;33163;0.000;0.000;2022-09-03T03:10:45;1.20;;;1.08;;
47413;SDS011;33163;0.000;0.000;2022-09-03T03:13:13;2.15;;;1.17;;
47413;SDS011;33163;0.000;0.000;2022-09-03T03:15:40;2.10;;;1.40;;
47413;SDS011;33163;0.000;0.000;2022-09-03T03:18:08;1.92;;;1.30;;
47413;SDS011;33163;0.000;0.000;2022-09-03T03:20:36;1.63;;;1.30;;
47413;SDS011;33163;0.000;0.000;2022-09-03T03:23:04;1.58;;;1.13;;
47413;SDS011;33163;0.000;0.000;2022-09-03T03:25:32;1.92;;;1.15;;
47413;SDS011;33163;0.000;0.000;2022-09-03T03:27:59;2.30;;;1.38;;
47413;SDS011;33163;0.000;0.000;2022-09-03T03:30:26;1.88;;;1.15;;
47413;SDS011;33163;0.000;0.000;2022-09-03T03:32:53;4.43;;;1.20;;
47413;SDS011;33163;0.000;0.000;2022-09-03T03:35:20;2.95;;;1.48;;
47413;SDS011;33163;0.000;0.000;2022-09-03T03:37:48;1.73;;;1.30;;
47413;SDS011;33163;0.000;0.000;2022-09-03T03:40:16;3.75;;;1.33;;
47413;SDS011;33163;0.000;0.000;2022-09-03T03:42:44;1.60;;;1.05;;
47413;SDS011;33163;0.000;0.000;2022-09-03T03:45:11;2.75;;;1.10;;
47413;SDS011;33163;0.000;0.000;2022-09-03T03:47:37;1.33;;;1.20;;
47413;SDS011;33163;0.000;0.000;2022-09-03T03:50:04;3.00;;;1.50;;
47413;SDS011;33163;0.000;0.000;2022-09-03T03:52:32;3.65;;;1.35;;
47413;SDS011;33163;0.000;0.000;2022-09-03T03:54:58;2.13;;;1.27;;
47413;SDS011;33163;0.000;0.000;2022-09-03T03:57:28;1.50;;;1.17;;
47413;SDS011;33163;0.000;0.000;2022-09-03T03:59:56;1.42;;;1.30;;
47413;SDS011;33163;0.000;0.000;2022-09-03T04:02:22;1.67;;;1.27;;
47413;SDS011;33163;0.000;0.000;2022-09-03T04:04:49;2.67;;;1.35;;
47413;SDS011;33163;0.000;0.000;2022-09-03T04:07:18;3.45;;;1.40;;
47413;SDS011;33163;0.000;0.000;2022-09-03T04:09:45;1.98;;;1.23;;
47413;SDS011;33163;0.000;0.000;2022-09-03T04:12:14;1.98;;;1.23;;
47413;SDS011;33163;0.000;0.000;2022-09-03T04:14:43;4.13;;;1.25;;
47413;SDS011;33163;0.000;0.000;2022-09-03T04:17:10;2.47;;;1.48;;
47413;SDS011;33163;0.000;0.000;2022-09-03T04:19:36;2.35;;;1.13;;
47413;SDS011;33163;0.000;0.000;2022-09-03T04:22:03;1.55;;;1.08;;
47413;SDS011;33163;0.000;0.000;2022-09-03T04:24:30;1.55;;;1.17;;
47413;SDS011;33163;0.000;0.000;2022-09-03T04:26:57;1.88;;;1.27;;
47413;SDS011;33163;0.000;0.000;2022-09-03T04:29:24;1.77;;;1.67;;
47413;SDS011;33163;0.000;0.000;2022-09-03T04:31:52;3.38;;;1.27;;
47413;SDS011;33163;0.000;0.000;2022-09-03T04:34:36;1.40;;;1.27;;
47413;SDS011;33163;0.000;0.000;2022-09-03T04:37:02;1.45;;;1.30;;
47413;SDS011;33163;0.000;0.000;2022-09-03T04:39:29;1.40;;;1.10;;
47413;SDS011;33163;0.000;0.000;2022-09-03T04:41:56;1.35;;;1.23;;
47413;SDS011;33163;0.000;0.000;2022-09-03T04:44:23;3.53;;;1.17;;
47413;SDS011;33163;0.000;0.000;2022-09-03T04:46:50;2.60;;;1.55;;
47413;SDS011;33163;0.000;0.000;2022-09-03T04:49:18;2.60;;;1.80;;
47413;SDS011;33163;0.000;0.000;2022-09-03T04:51:44;2.55;;;1.40;;
47413;SDS011;33163;0.000;0.000;2022-09-03T04:54:11;3.30;;;1.13;;
47413;SDS011;33163;0.000;0.000;2022-09-03T04:56:38;4.75;;;1.10;;
47413;SDS011;33163;0.000;0.000;2022-09-03T04:59:05;2.83;;;1.30;;
47413;SDS011;33163;0.000;0.000;2022-09-03T05:01:34;2.13;;;1.50;;
47413;SDS011;33163;0.000;0.000;2022-09-03T05:04:05;1.42;;;1.20;;
47413;SDS011;33163;0.000;0.000;2022-09-03T05:06:33;2.25;;;1.50;;
47413;SDS011;33163;0.000;0.000;2022-09-03T05:09:01;2.00;;;1.00;;
47413;SDS011;33163;0.000;0.000;2022-09-03T05:11:28;2.10;;;1.30;;
47413;SDS011;33163;0.000;0.000;2022-09-03T05:13:56;2.33;;;1.65;;
47413;SDS011;33163;0.000;0.000;2022-09-03T05:16:24;2.53;;;1.20;;
47413;SDS011;33163;0.000;0.000;2022-09-03T05:18:52;3.15;;;1.60;;
47413;SDS011;33163;0.000;0.000;2022-09-03T05:21:21;2.58;;;1.30;;
47413;SDS011;33163;0.000;0.000;2022-09-03T05:23:49;4.68;;;1.48;;
47413;SDS011;33163;0.000;0.000;2022-09-03T05:26:17;1.95;;;1.30;;
47413;SDS011;33163;0.000;0.000;2022-09-03T05:28:45;2.42;;;1.55;;
47413;SDS011;33163;0.000;0.000;2022-09-03T05:31:13;1.70;;;0.98;;
47413;SDS011;33163;0.000;0.000;2022-09-03T05:33:42;3.00;;;1.38;;
47413;SDS011;33163;0.000;0.000;2022-09-03T05:36:11;4.70;;;2.08;;
47413;SDS011;33163;0.000;0.000;2022-09-03T05:38:41;3.50;;;1.35;;
47413;SDS011;33163;0.000;0.000;2022-09-03T05:41:08;3.20;;;1.30;;
47413;SDS011;33163;0.000;0.000;2022-09-03T05:43:36;3.97;;;1.30;;
47413;SDS011;33163;0.000;0.000;2022-09-03T05:46:04;2.33;;;1.50;;
47413;SDS011;33163;0.000;0.000;2022-09-03T05:48:33;1.83;;;1.10;;
47413;SDS011;33163;0.000;0.000;2022-09-03T05:51:02;3.20;;;1.40;;
47413;SDS011;33163;0.000;0.000;2022-09-03T05:53:32;2.78;;;1.40;;
47413;SDS011;33163;0.000;0.000;2022-09-03T05:56:02;2.20;;;1.38;;
47413;SDS011;33163;0.000;0.000;2022-09-03T05:58:31;2.35;;;1.38;;
47413;SDS011;33163;0.000;0.000;2022-09-03T06:00:59;3.55;;;1.50;;
47413;SDS011;33163;0.000;0.000;2022-09-03T06:03:34;1.60;;;1.15;;
47413;SDS011;33163;0.000;0.000;2022-09-03T06:06:01;3.00;;;1.40;;
47413;SDS011;33163;0.000;0.000;2022-09-03T06:08:28;3.58;;;1.63;;
47413;SDS011;33163;0.000;0.000;2022-09-03T06:10:56;1.38;;;1.20;;
47413;SDS011;33163;0.000;0.000;2022-09-03T06:13:24;2.22;;;1.13;;
47413;SDS011;33163;0.000;0.000;2022-09-03T06:15:54;2.15;;;1.42;;
47413;SDS011;33163;0.000;0.000;2022-09-03T06:18:22;1.95;;;1.48;;
47413;SDS011;33163;0.000;0.000;2022-09-03T06:20:52;3.17;;;1.33;;
47413;SDS011;33163;0.000;0.000;2022-09-03T06:23:19;1.95;;;1.10;;
47413;SDS011;33163;0.000;0.000;2022-09-03T06:25:46;1.85;;;1.27;;
47413;SDS011;33163;0.000;0.000;2022-09-03T06:28:13;2.05;;;1.23;;
47413;SDS011;33163;0.000;0.000;2022-09-03T06:30:41;1.95;;;1.27;;
47413;SDS011;33163;0.000;0.000;2022-09-03T06:33:08;3.10;;;1.25;;
47413;SDS011;33163;0.000;0.000;2022-09-03T06:35:35;1.48;;;1.00;;
47413;SDS011;33163;0.000;0.000;2022-09-03T06:38:01;1.63;;;1.25;;
47413;SDS011;33163;0.000;0.000;2022-09-03T06:40:28;2.05;;;1.40;;
47413;SDS011;33163;0.000;0.000;2022-09-03T06:42:56;1.55;;;1.27;;
47413;SDS011;33163;0.000;0.000;2022-09-03T06:45:26;1.95;;;1.27;;
47413;SDS011;33163;0.000;0.000;2022-09-03T06:47:55;2.42;;;1.65;;
47413;SDS011;33163;0.000;0.000;2022-09-03T06:50:21;3.10;;;1.40;;
47413;SDS011;33163;0.000;0.000;2022-09-03T06:52:52;1.88;;;1.40;;
47413;SDS011;33163;0.000;0.000;2022-09-03T06:55:19;1.95;;;1.50;;
47413;SDS011;33163;0.000;0.000;2022-09-03T06:57:47;3.45;;;1.70;;
47413;SDS011;33163;0.000;0.000;2022-09-03T07:00:15;2.55;;;1.33;;
47413;SDS011;33163;0.000;0.000;2022-09-03T07:02:42;2.85;;;1.10;;
47413;SDS011;33163;0.000;0.000;2022-09-03T07:05:10;1.63;;;1.17;;
47413;SDS011;33163;0.000;0.000;2022-09-03T07:07:37;1.30;;;1.13;;
47413;SDS011;33163;0.000;0.000;2022-09-03T07:10:04;2.00;;;1.30;;
47413;SDS011;33163;0.000;0.000;2022-09-03T07:12:31;3.40;;;1.35;;
47413;SDS011;33163;0.000;0.000;2022-09-03T07:15:01;3.05;;;1.55;;
47413;SDS011;33163;0.000;0.000;2022-09-03T07:17:28;1.70;;;1.20;;
47413;SDS011;33163;0.000;0.000;2022-09-03T07:19:55;3.28;;;1.20;;
47413;SDS011;33163;0.000;0.000;2022-09-03T07:22:23;2.30;;;1.10;;
47413;SDS011;33163;0.000;0.000;2022-09-03T07:24:50;2.92;;;1.67;;
47413;SDS011;33163;0.000;0.000;2022-09-03T07:27:17;1.65;;;1.45;;
47413;SDS011;33163;0.000;0.000;2022-09-03T07:29:43;4.25;;;1.50;;
47413;SDS011;33163;0.000;0.000;2022-09-03T07:32:10;4.90;;;1.50;;
47413;SDS011;33163;0.000;0.000;2022-09-03T07:34:37;2.47;;;1.23;;
47413;SDS011;33163;0.000;0.000;2022-09-03T07:37:04;4.43;;;1.52;;
47413;SDS011;33163;0.000;0.000;2022-09-03T07:39:32;5.50;;;1.80;;
47413;SDS011;33163;0.000;0.000;2022-09-03T07:41:59;3.38;;;1.65;;
47413;SDS011;33163;0.000;0.000;2022-09-03T07:44:26;5.32;;;1.85;;
47413;SDS011;33163;0.000;0.000;2022-09-03T07:46:53;5.97;;;1.80;;
47413;SDS011;33163;0.000;0.000;2022-09-03T07:49:20;7.85;;;2.17;;
47413;SDS011;33163;0.000;0.000;2022-09-03T07:51:47;7.63;;;1.83;;
47413;SDS011;33163;0.000;0.000;2022-09-03T07:54:18;6.85;;;1.85;;
47413;SDS011;33163;0.000;0.000;2022-09-03T07:56:47;6.40;;;1.55;;
47413;SDS011;33163;0.000;0.000;2022-09-03T07:59:14;3.25;;;1.90;;
47413;SDS011;33163;0.000;0.000;2022-09-03T08:01:41;4.07;;;2.03;;
47413;SDS011;33163;0.000;0.000;2022-09-03T08:04:08;4.65;;;1.60;;
47413;SDS011;33163;0.000;0.000;2022-09-03T08:06:36;4.53;;;1.92;;
47413;SDS011;33163;0.000;0.000;2022-09-03T08:09:04;5.00;;;1.83;;
47413;SDS011;33163;0.000;0.000;2022-09-03T08:11:35;8.30;;;1.70;;
47413;SDS011;33163;0.000;0.000;2022-09-03T08:14:05;3.88;;;1.75;;
47413;SDS011;33163;0.000;0.000;2022-09-03T08:16:34;8.07;;;1.92;;
47413;SDS011;33163;0.000;0.000;2022-09-03T08:19:01;5.10;;;1.70;;
47413;SDS011;33163;0.000;0.000;2022-09-03T08:21:29;6.50;;;2.00;;
47413;SDS011;33163;0.000;0.000;2022-09-03T08:23:56;6.03;;;2.10;;
47413;SDS011;33163;0.000;0.000;2022-09-03T08:26:26;7.43;;;2.08;;
47413;SDS011;33163;0.000;0.000;2022-09-03T08:28:54;3.30;;;1.73;;
47413;SDS011;33163;0.000;0.000;2022-09-03T08:31:22;7.40;;;2.28;;
47413;SDS011;33163;0.000;0.000;2022-09-03T08:33:51;5.32;;;2.05;;
47413;SDS011;33163;0.000;0.000;2022-09-03T08:36:20;4.15;;;1.88;;
47413;SDS011;33163;0.000;0.000;2022-09-03T08:38:49;6.30;;;2.00;;
47413;SDS011;33163;0.000;0.000;2022-09-03T08:41:19;4.57;;;1.60;;
47413;SDS011;33163;0.000;0.000;2022-09-03T08:46:49;6.07;;;1.83;;
47413;SDS011;33163;0.000;0.000;2022-09-03T08:49:21;5.13;;;1.92;;
47413;SDS011;33163;0.000;0.000;2022-09-03T08:51:53;5.53;;;1.50;;
47413;SDS011;33163;0.000;0.000;2022-09-03T08:54:23;5.72;;;1.75;;
47413;SDS011;33163;0.000;0.000;2022-09-03T08:56:54;5.57;;;1.90;;
47413;SDS011;33163;0.000;0.000;2022-09-03T08:59:25;5.63;;;1.98;;
47413;SDS011;33163;0.000;0.000;2022-09-03T09:01:55;7.45;;;2.20;;
47413;SDS011;33163;0.000;0.000;2022-09-03T09:04:33;3.13;;;1.83;;
47413;SDS011;33163;0.000;0.000;2022-09-03T09:07:10;4.57;;;1.60;;
47413;SDS011;33163;0.000;0.000;2022-09-03T09:09:41;9.07;;;1.83;;
47413;SDS011;33163;0.000;0.000;2022-09-03T09:12:15;3.33;;;2.03;;
47413;SDS011;33163;0.000;0.000;2022-09-03T09:14:51;12.05;;;1.60;;
47413;SDS011;33163;0.000;0.000;2022-09-03T09:17:35;8.90;;;1.80;;
47413;SDS011;33163;0.000;0.000;2022-09-03T09:20:25;5.57;;;1.85;;
47413;SDS011;33163;0.000;0.000;2022-09-03T09:23:02;9.57;;;1.90;;
47413;SDS011;33163;0.000;0.000;2022-09-03T09:25:30;7.75;;;2.00;;
47413;SDS011;33163;0.000;0.000;2022-09-03T09:28:05;5.30;;;1.50;;
47413;SDS011;33163;0.000;0.000;2022-09-03T09:30:38;8.63;;;1.52;;
47413;SDS011;33163;0.000;0.000;2022-09-03T09:33:07;2.92;;;1.70;;
47413;SDS011;33163;0.000;0.000;2022-09-03T09:35:34;7.50;;;1.75;;
47413;SDS011;33163;0.000;0.000;2022-09-03T09:38:05;9.57;;;1.63;;
47413;SDS011;33163;0.000;0.000;2022-09-03T09:40:32;7.78;;;1.90;;
47413;SDS011;33163;0.000;0.000;2022-09-03T09:43:07;5.88;;;1.60;;
47413;SDS011;33163;0.000;0.000;2022-09-03T09:45:37;6.13;;;1.58;;
47413;SDS011;33163;0.000;0.000;2022-09-03T09:48:08;9.32;;;2.00;;
47413;SDS011;33163;0.000;0.000;2022-09-03T09:50:42;8.82;;;2.40;;
47413;SDS011;33163;0.000;0.000;2022-09-03T09:53:09;6.65;;;1.60;;
47413;SDS011;33163;0.000;0.000;2022-09-03T09:55:52;3.40;;;1.95;;
47413;SDS011;33163;0.000;0.000;2022-09-03T09:58:22;3.72;;;1.90;;
47413;SDS011;33163;0.000;0.000;2022-09-03T10:00:55;5.03;;;2.00;;
47413;SDS011;33163;0.000;0.000;2022-09-03T10:03:24;6.65;;;2.00;;
47413;SDS011;33163;0.000;0.000;2022-09-03T10:05:57;10.23;;;1.73;;
47413;SDS011;33163;0.000;0.000;2022-09-03T10:11:17;11.13;;;2.40;;
47413;SDS011;33163;0.000;0.000;2022-09-03T10:13:49;6.85;;;2.10;;
47413;SDS011;33163;0.000;0.000;2022-09-03T10:16:19;7.20;;;1.80;;
47413;SDS011;33163;0.000;0.000;2022-09-03T10:18:54;6.10;;;2.22;;
47413;SDS011;33163;0.000;0.000;2022-09-03T10:21:26;8.32;;;2.33;;
47413;SDS011;33163;0.000;0.000;2022-09-03T10:23:59;7.38;;;2.15;;
47413;SDS011;33163;0.000;0.000;2022-09-03T10:26:39;8.45;;;1.67;;
47413;SDS011;33163;0.000;0.000;2022-09-03T10:29:10;6.13;;;1.95;;
47413;SDS011;33163;0.000;0.000;2022-09-03T10:31:43;4.78;;;1.48;;
47413;SDS011;33163;0.000;0.000;2022-09-03T10:34:21;11.40;;;2.65;;
47413;SDS011;33163;0.000;0.000;2022-09-03T10:37:03;6.03;;;1.83;;
47413;SDS011;33163;0.000;0.000;2022-09-03T10:39:43;7.20;;;2.00;;
47413;SDS011;33163;0.000;0.000;2022-09-03T10:42:28;5.63;;;1.83;;
47413;SDS011;33163;0.000;0.000;2022-09-03T10:45:06;8.00;;;1.90;;
47413;SDS011;33163;0.000;0.000;2022-09-03T10:47:44;9.95;;;1.67;;
47413;SDS011;33163;0.000;0.000;2022-09-03T10:50:29;8.27;;;2.10;;
47413;SDS011;33163;0.000;0.000;2022-09-03T10:53:06;3.70;;;1.55;;
47413;SDS011;33163;0.000;0.000;2022-09-03T10:55:40;2.22;;;1.25;;
47413;SDS011;33163;0.000;0.000;2022-09-03T10:58:24;11.10;;;1.98;;
47413;SDS011;33163;0.000;0.000;2022-09-03T11:01:14;5.93;;;2.17;;
47413;SDS011;33163;0.000;0.000;2022-09-03T11:03:47;7.22;;;1.85;;
47413;SDS011;33163;0.000;0.000;2022-09-03T11:06:23;5.83;;;1.90;;
47413;SDS011;33163;0.000;0.000;2022-09-03T11:08:54;6.43;;;1.73;;
47413;SDS011;33163;0.000;0.000;2022-09-03T11:11:27;9.27;;;2.28;;
47413;SDS011;33163;0.000;0.000;2022-09-03T11:13:59;3.28;;;1.58;;
47413;SDS011;33163;0.000;0.000;2022-09-03T11:16:33;14.20;;;2.55;;
47413;SDS011;33163;0.000;0.000;2022-09-03T11:19:03;1.98;;;1.58;;
47413;SDS011;33163;0.000;0.000;2022-09-03T11:21:34;5.68;;;1.60;;
47413;SDS011;33163;0.000;0.000;2022-09-03T11:24:04;3.42;;;1.60;;
47413;SDS011;33163;0.000;0.000;2022-09-03T11:26:37;6.38;;;1.85;;
47413;SDS011;33163;0.000;0.000;2022-09-03T11:29:08;84.75;;;38.00;;
47413;SDS011;33163;0.000;0.000;2022-09-03T11:31:44;182.00;;;95.50;;
47413;SDS011;33163;0.000;0.000;2022-09-03T11:34:25;304.00;;;164.43;;
47413;SDS011;33163;0.000;0.000;2022-09-03T11:37:05;274.58;;;145.73;;
47413;SDS011;33163;0.000;0.000;2022-09-03T11:39:40;210.02;;;113.70;;
47413;SDS011;33163;0.000;0.000;2022-09-03T11:42:10;172.88;;;91.45;;
47413;SDS011;33163;0.000;0.000;2022-09-03T11:44:48;165.38;;;85.30;;
47413;SDS011;33163;0.000;0.000;2022-09-03T11:47:20;129.70;;;71.05;;
47413;SDS011;33163;0.000;0.000;2022-09-03T11:49:49;118.00;;;60.47;;
47413;SDS011;33163;0.000;0.000;2022-09-03T11:52:28;98.57;;;49.97;;
47413;SDS011;33163;0.000;0.000;2022-09-03T11:54:57;64.47;;;29.02;;
47413;SDS011;33163;0.000;0.000;2022-09-03T11:57:25;45.83;;;24.02;;
47413;SDS011;33163;0.000;0.000;2022-09-03T11:59:54;42.03;;;21.75;;
47413;SDS011;33163;0.000;0.000;2022-09-03T12:02:34;37.00;;;18.55;;
47413;SDS011;33163;0.000;0.000;2022-09-03T12:05:11;32.03;;;15.13;;
47413;SDS011;33163;0.000;0.000;2022-09-03T12:08:05;21.13;;;11.57;;
47413;SDS011;33163;0.000;0.000;2022-09-03T12:10:52;18.42;;;9.02;;
47413;SDS011;33163;0.000;0.000;2022-09-03T12:13:26;14.43;;;7.20;;
47413;SDS011;33163;0.000;0.000;2022-09-03T12:19:14;13.75;;;5.32;;
47413;SDS011;33163;0.000;0.000;2022-09-03T12:21:46;13.98;;;5.55;;
47413;SDS011;33163;0.000;0.000;2022-09-03T12:24:16;8.15;;;3.97;;
47413;SDS011;33163;0.000;0.000;2022-09-03T12:26:44;15.05;;;4.03;;
47413;SDS011;33163;0.000;0.000;2022-09-03T12:29:22;8.27;;;3.40;;
47413;SDS011;33163;0.000;0.000;2022-09-03T12:31:50;14.23;;;4.15;;
47413;SDS011;33163;0.000;0.000;2022-09-03T12:34:19;8.95;;;5.05;;
47413;SDS011;33163;0.000;0.000;2022-09-03T12:36:48;12.85;;;3.92;;
47413;SDS011;33163;0.000;0.000;2022-09-03T12:39:18;9.75;;;5.00;;
47413;SDS011;33163;0.000;0.000;2022-09-03T12:41:55;10.15;;;3.40;;
47413;SDS011;33163;0.000;0.000;2022-09-03T12:44:28;9.57;;;4.40;;
47413;SDS011;33163;0.000;0.000;2022-09-03T12:47:00;7.97;;;3.95;;
47413;SDS011;33163;0.000;0.000;2022-09-03T12:49:32;8.55;;;4.35;;
47413;SDS011;33163;0.000;0.000;2022-09-03T12:52:01;6.75;;;4.93;;
47413;SDS011;33163;0.000;0.000;2022-09-03T12:54:34;14.20;;;4.05;;
47413;SDS011;33163;0.000;0.000;2022-09-03T12:57:04;10.10;;;4.43;;
47413;SDS011;33163;0.000;0.000;2022-09-03T12:59:32;8.98;;;3.83;;
47413;SDS011;33163;0.000;0.000;2022-09-03T13:02:01;7.13;;;3.78;;
47413;SDS011;33163;0.000;0.000;2022-09-03T13:04:37;8.57;;;3.45;;
47413;SDS011;33163;0.000;0.000;2022-09-03T13:07:06;7.70;;;3.10;;
47413;SDS011;33163;0.000;0.000;2022-09-03T13:09:39;4.85;;;2.67;;
47413;SDS011;33163;0.000;0.000;2022-09-03T13:12:18;3.85;;;2.42;;
47413;SDS011;33163;0.000;0.000;2022-09-03T13:14:47;7.85;;;2.78;;
47413;SDS011;33163;0.000;0.000;2022-09-03T13:17:17;5.88;;;2.88;;
47413;SDS011;33163;0.000;0.000;2022-09-03T13:19:57;7.25;;;2.20;;
47413;SDS011;33163;0.000;0.000;2022-09-03T13:22:40;5.78;;;2.55;;
47413;SDS011;33163;0.000;0.000;2022-09-03T13:25:22;4.88;;;2.50;;
47413;SDS011;33163;0.000;0.000;2022-09-03T13:27:55;5.60;;;2.45;;
47413;SDS011;33163;0.000;0.000;2022-09-03T13:30:30;6.72;;;2.00;;
47413;SDS011;33163;0.000;0.000;2022-09-03T13:33:04;7.97;;;2.10;;
47413;SDS011;33163;0.000;0.000;2022-09-03T13:35:43;5.88;;;2.28;;
47413;SDS011;33163;0.000;0.000;2022-09-03T13:38:18;3.80;;;2.40;;
47413;SDS011;33163;0.000;0.000;2022-09-03T13:40:53;9.07;;;2.47;;
47413;SDS011;33163;0.000;0.000;2022-09-03T13:43:26;7.28;;;2.60;;
47413;SDS011;33163;0.000;0.000;2022-09-03T13:45:59;5.95;;;2.15;;
47413;SDS011;33163;0.000;0.000;2022-09-03T13:48:31;3.00;;;1.80;;
47413;SDS011;33163;0.000;0.000;2022-09-03T13:51:21;4.75;;;2.17;;
47413;SDS011;33163;0.000;0.000;2022-09-03T13:54:02;8.57;;;2.00;;
47413;SDS011;33163;0.000;0.000;2022-09-03T13:56:46;5.20;;;2.08;;
47413;SDS011;33163;0.000;0.000;2022-09-03T13:59:19;5.78;;;2.65;;
47413;SDS011;33163;0.000;0.000;2022-09-03T14:01:59;4.88;;;1.60;;
47413;SDS011;33163;0.000;0.000;2022-09-03T14:04:47;9.10;;;2.47;;
47413;SDS011;33163;0.000;0.000;2022-09-03T14:07:24;3.15;;;2.00;;
47413;SDS011;33163;0.000;0.000;2022-09-03T14:10:00;3.65;;;1.92;;
47413;SDS011;33163;0.000;0.000;2022-09-03T14:12:38;5.03;;;2.38;;
47413;SDS011;33163;0.000;0.000;2022-09-03T14:15:14;4.90;;;2.30;;
47413;SDS011;33163;0.000;0.000;2022-09-03T14:17:46;3.97;;;1.90;;
47413;SDS011;33163;0.000;0.000;2022-09-03T14:20:18;4.38;;;1.67;;
47413;SDS011;33163;0.000;0.000;2022-09-03T14:22:50;3.40;;;2.03;;
47413;SDS011;33163;0.000;0.000;2022-09-03T14:25:21;8.35;;;2.13;;
47413;SDS011;33163;0.000;0.000;2022-09-03T14:27:51;2.38;;;1.90;;
47413;SDS011;33163;0.000;0.000;2022-09-03T14:30:25;3.17;;;1.92;;
47413;SDS011;33163;0.000;0.000;2022-09-03T14:33:02;8.65;;;2.10;;
47413;SDS011;33163;0.000;0.000;2022-09-03T14:35:47;3.75;;;2.00;;
47413;SDS011;33163;0.000;0.000;2022-09-03T14:38:39;10.80;;;2.15;;
47413;SDS011;33163;0.000;0.000;2022-09-03T14:41:21;6.10;;;2.08;;
47413;SDS011;33163;0.000;0.000;2022-09-03T14:44:03;5.35;;;1.98;;
47413;SDS011;33163;0.000;0.000;2022-09-03T14:46:49;10.98;;;2.00;;
47413;SDS011;33163;0.000;0.000;2022-09-03T14:49:33;12.25;;;2.88;;
47413;SDS011;33163;0.000;0.000;2022-09-03T14:52:27;9.15;;;2.40;;
47413;SDS011;33163;0.000;0.000;2022-09-03T14:55:11;7.32;;;2.13;;
47413;SDS011;33163;0.000;0.000;2022-09-03T14:57:50;5.60;;;2.00;;
47413;SDS011;33163;0.000;0.000;2022-09-03T15:00:33;5.00;;;2.10;;
47413;SDS011;33163;0.000;0.000;2022-09-03T15:03:14;6.45;;;1.95;;
47413;SDS011;33163;0.000;0.000;2022-09-03T15:06:03;6.97;;;2.17;;
47413;SDS011;33163;0.000;0.000;2022-09-03T15:08:46;3.40;;;1.88;;
47413;SDS011;33163;0.000;0.000;2022-09-03T15:11:21;10.43;;;2.38;;
47413;SDS011;33163;0.000;0.000;2022-09-03T15:13:50;10.35;;;2.13;;
47413;SDS011;33163;0.000;0.000;2022-09-03T15:16:27;5.50;;;2.00;;
47413;SDS011;33163;0.000;0.000;2022-09-03T15:19:08;3.13;;;2.15;;
47413;SDS011;33163;0.000;0.000;2022-09-03T15:21:48;4.57;;;1.75;;
47413;SDS011;33163;0.000;0.000;2022-09-03T15:24:25;6.05;;;2.28;;
47413;SDS011;33163;0.000;0.000;2022-09-03T15:27:04;6.70;;;2.53;;
47413;SDS011;33163;0.000;0.000;2022-09-03T15:29:47;6.82;;;2.28;;
47413;SDS011;33163;0.000;0.000;2022-09-03T15:32:21;5.47;;;2.03;;
47413;SDS011;33163;0.000;0.000;2022-09-03T15:35:00;9.65;;;2.40;;
47413;SDS011;33163;0.000;0.000;2022-09-03T15:37:35;7.97;;;2.03;;
47413;SDS011;33163;0.000;0.000;2022-09-03T15:40:08;3.97;;;2.03;;
47413;SDS011;33163;0.000;0.000;2022-09-03T15:42:55;6.80;;;2.22;;
47413;SDS011;33163;0.000;0.000;2022-09-03T15:45:33;4.55;;;2.00;;